sensor_id;sensor_type;location;lat;lon;timestamp;P1;durP1;ratioP1;P2;durP2;ratioP2
63567;SDS011;49715;42.386;20.434;2022-09-14T03:16:28;16.02;;;8.18;;
63567;SDS011;49715;42.386;20.434;2022-09-14T03:18:55;14.73;;;8.00;;
63567;SDS011;49715;42.386;20.434;2022-09-14T03:21:21;14.43;;;7.57;;
63567;SDS011;49715;42.386;20.434;2022-09-14T03:26:17;11.82;;;6.35;;
63567;SDS011;49715;42.386;20.434;2022-09-14T03:28:52;14.98;;;6.57;;
63567;SDS011;49715;42.386;20.434;2022-09-14T03:31:20;13.60;;;7.32;;
63567;SDS011;49715;42.386;20.434;2022-09-14T03:33:50;17.08;;;8.15;;
63567;SDS011;49715;42.386;20.434;2022-09-14T03:36:19;11.95;;;7.28;;
63567;SDS011;49715;42.386;20.434;2022-09-14T03:38:47;8.10;;;6.00;;
63567;SDS011;49715;42.386;20.434;2022-09-14T03:41:15;11.27;;;6.32;;
63567;SDS011;49715;42.386;20.434;2022-09-14T03:46:13;9.20;;;5.50;;
63567;SDS011;49715;42.386;20.434;2022-09-14T03:48:42;8.10;;;4.88;;
63567;SDS011;49715;42.386;20.434;2022-09-14T03:53:37;11.15;;;5.32;;
63567;SDS011;49715;42.386;20.434;2022-09-14T03:56:14;16.38;;;6.00;;
63567;SDS011;49715;42.386;20.434;2022-09-14T03:58:45;14.00;;;6.35;;
63567;SDS011;49715;42.386;20.434;2022-09-14T04:01:13;16.02;;;6.70;;
63567;SDS011;49715;42.386;20.434;2022-09-14T04:03:43;11.95;;;6.60;;
63567;SDS011;49715;42.386;20.434;2022-09-14T04:06:09;13.43;;;5.77;;
63567;SDS011;49715;42.386;20.434;2022-09-14T04:11:08;15.65;;;8.45;;
63567;SDS011;49715;42.386;20.434;2022-09-14T04:13:38;18.08;;;8.65;;
63567;SDS011;49715;42.386;20.434;2022-09-14T04:16:04;16.30;;;9.15;;
63567;SDS011;49715;42.386;20.434;2022-09-14T04:18:31;18.08;;;7.32;;
63567;SDS011;49715;42.386;20.434;2022-09-14T04:21:04;10.98;;;5.82;;
63567;SDS011;49715;42.386;20.434;2022-09-14T04:23:33;8.55;;;4.82;;
63567;SDS011;49715;42.386;20.434;2022-09-14T04:25:59;15.30;;;5.23;;
63567;SDS011;49715;42.386;20.434;2022-09-14T04:28:25;6.83;;;4.20;;
63567;SDS011;49715;42.386;20.434;2022-09-14T04:30:56;16.90;;;4.75;;
63567;SDS011;49715;42.386;20.434;2022-09-14T04:33:24;9.57;;;4.88;;
63567;SDS011;49715;42.386;20.434;2022-09-14T04:36:12;16.83;;;5.57;;
63567;SDS011;49715;42.386;20.434;2022-09-14T04:38:42;10.55;;;5.70;;
63567;SDS011;49715;42.386;20.434;2022-09-14T04:41:10;14.85;;;5.00;;
63567;SDS011;49715;42.386;20.434;2022-09-14T04:43:43;11.65;;;5.85;;
63567;SDS011;49715;42.386;20.434;2022-09-14T04:46:11;14.07;;;6.07;;
63567;SDS011;49715;42.386;20.434;2022-09-14T04:48:42;11.07;;;6.78;;
63567;SDS011;49715;42.386;20.434;2022-09-14T04:51:10;9.20;;;6.85;;
63567;SDS011;49715;42.386;20.434;2022-09-14T04:53:39;11.95;;;6.82;;
63567;SDS011;49715;42.386;20.434;2022-09-14T04:56:06;17.38;;;7.75;;
63567;SDS011;49715;42.386;20.434;2022-09-14T04:58:35;14.32;;;5.40;;
63567;SDS011;49715;42.386;20.434;2022-09-14T05:01:06;10.35;;;5.68;;
63567;SDS011;49715;42.386;20.434;2022-09-14T05:03:35;14.68;;;5.00;;
63567;SDS011;49715;42.386;20.434;2022-09-14T05:06:05;11.57;;;5.10;;
63567;SDS011;49715;42.386;20.434;2022-09-14T05:08:33;11.02;;;5.47;;
63567;SDS011;49715;42.386;20.434;2022-09-14T05:11:01;9.82;;;5.43;;
63567;SDS011;49715;42.386;20.434;2022-09-14T05:13:27;17.80;;;6.50;;
63567;SDS011;49715;42.386;20.434;2022-09-14T05:16:05;20.73;;;7.28;;
63567;SDS011;49715;42.386;20.434;2022-09-14T05:18:32;16.23;;;9.20;;
63567;SDS011;49715;42.386;20.434;2022-09-14T05:21:00;19.60;;;9.77;;
63567;SDS011;49715;42.386;20.434;2022-09-14T05:23:28;15.27;;;9.18;;
63567;SDS011;49715;42.386;20.434;2022-09-14T05:25:54;15.43;;;7.97;;
63567;SDS011;49715;42.386;20.434;2022-09-14T05:28:21;14.23;;;7.07;;
63567;SDS011;49715;42.386;20.434;2022-09-14T05:30:47;14.23;;;6.90;;
63567;SDS011;49715;42.386;20.434;2022-09-14T05:33:14;14.55;;;7.75;;
63567;SDS011;49715;42.386;20.434;2022-09-14T05:35:40;13.83;;;8.17;;
63567;SDS011;49715;42.386;20.434;2022-09-14T05:38:07;23.05;;;8.63;;
63567;SDS011;49715;42.386;20.434;2022-09-14T05:40:33;12.00;;;6.93;;
63567;SDS011;49715;42.386;20.434;2022-09-14T05:43:00;15.57;;;6.97;;
63567;SDS011;49715;42.386;20.434;2022-09-14T05:45:27;12.80;;;6.82;;
63567;SDS011;49715;42.386;20.434;2022-09-14T05:47:53;15.63;;;7.50;;
63567;SDS011;49715;42.386;20.434;2022-09-14T05:50:20;14.98;;;7.65;;
63567;SDS011;49715;42.386;20.434;2022-09-14T05:52:48;11.65;;;7.30;;
63567;SDS011;49715;42.386;20.434;2022-09-14T05:55:16;23.58;;;8.95;;
63567;SDS011;49715;42.386;20.434;2022-09-14T06:00:13;20.52;;;8.82;;
63567;SDS011;49715;42.386;20.434;2022-09-14T06:02:44;21.52;;;9.75;;
63567;SDS011;49715;42.386;20.434;2022-09-14T06:05:15;18.35;;;8.95;;
63567;SDS011;49715;42.386;20.434;2022-09-14T06:07:42;23.42;;;9.57;;
63567;SDS011;49715;42.386;20.434;2022-09-14T06:10:16;25.33;;;9.30;;
63567;SDS011;49715;42.386;20.434;2022-09-14T06:12:43;18.83;;;8.80;;
63567;SDS011;49715;42.386;20.434;2022-09-14T06:15:09;22.03;;;9.87;;
63567;SDS011;49715;42.386;20.434;2022-09-14T06:17:36;25.63;;;9.40;;
63567;SDS011;49715;42.386;20.434;2022-09-14T06:22:30;19.38;;;8.65;;
63567;SDS011;49715;42.386;20.434;2022-09-14T06:24:58;24.60;;;10.00;;
63567;SDS011;49715;42.386;20.434;2022-09-14T06:27:24;22.63;;;9.90;;
63567;SDS011;49715;42.386;20.434;2022-09-14T06:29:53;17.92;;;9.35;;
63567;SDS011;49715;42.386;20.434;2022-09-14T06:32:19;25.30;;;10.38;;
63567;SDS011;49715;42.386;20.434;2022-09-14T06:34:49;25.30;;;11.00;;
63567;SDS011;49715;42.386;20.434;2022-09-14T06:37:16;23.27;;;10.00;;
63567;SDS011;49715;42.386;20.434;2022-09-14T06:39:42;21.67;;;10.40;;
63567;SDS011;49715;42.386;20.434;2022-09-14T06:42:09;20.02;;;10.18;;
63567;SDS011;49715;42.386;20.434;2022-09-14T06:44:38;16.63;;;10.27;;
63567;SDS011;49715;42.386;20.434;2022-09-14T06:47:05;21.60;;;10.70;;
63567;SDS011;49715;42.386;20.434;2022-09-14T06:49:31;22.30;;;9.23;;
63567;SDS011;49715;42.386;20.434;2022-09-14T06:51:58;17.52;;;10.30;;
63567;SDS011;49715;42.386;20.434;2022-09-14T06:56:52;17.70;;;8.73;;
63567;SDS011;49715;42.386;20.434;2022-09-14T06:59:18;16.38;;;8.70;;
63567;SDS011;49715;42.386;20.434;2022-09-14T07:01:47;21.65;;;9.65;;
63567;SDS011;49715;42.386;20.434;2022-09-14T07:04:17;16.33;;;8.00;;
63567;SDS011;49715;42.386;20.434;2022-09-14T07:06:47;16.45;;;9.30;;
63567;SDS011;49715;42.386;20.434;2022-09-14T07:09:17;18.55;;;9.23;;
63567;SDS011;49715;42.386;20.434;2022-09-14T07:11:44;20.98;;;9.00;;
63567;SDS011;49715;42.386;20.434;2022-09-14T07:14:12;18.33;;;10.05;;
63567;SDS011;49715;42.386;20.434;2022-09-14T07:16:39;21.00;;;8.48;;
63567;SDS011;49715;42.386;20.434;2022-09-14T07:19:12;14.07;;;8.63;;
63567;SDS011;49715;42.386;20.434;2022-09-14T07:21:40;16.98;;;8.45;;
63567;SDS011;49715;42.386;20.434;2022-09-14T07:26:39;10.38;;;7.35;;
63567;SDS011;49715;42.386;20.434;2022-09-14T07:29:09;10.45;;;7.32;;
63567;SDS011;49715;42.386;20.434;2022-09-14T07:31:42;9.63;;;5.90;;
63567;SDS011;49715;42.386;20.434;2022-09-14T07:34:09;17.55;;;5.97;;
63567;SDS011;49715;42.386;20.434;2022-09-14T07:36:37;11.57;;;8.57;;
63567;SDS011;49715;42.386;20.434;2022-09-14T07:41:30;16.52;;;7.35;;
63567;SDS011;49715;42.386;20.434;2022-09-14T07:44:05;8.65;;;6.13;;
63567;SDS011;49715;42.386;20.434;2022-09-14T07:46:41;11.43;;;5.78;;
63567;SDS011;49715;42.386;20.434;2022-09-14T07:49:10;10.05;;;5.80;;
63567;SDS011;49715;42.386;20.434;2022-09-14T07:51:37;14.68;;;6.00;;
63567;SDS011;49715;42.386;20.434;2022-09-14T07:54:06;9.88;;;5.60;;
63567;SDS011;49715;42.386;20.434;2022-09-14T07:56:37;8.65;;;5.60;;
63567;SDS011;49715;42.386;20.434;2022-09-14T07:59:03;8.43;;;5.35;;
63567;SDS011;49715;42.386;20.434;2022-09-14T08:01:30;9.43;;;5.35;;
63567;SDS011;49715;42.386;20.434;2022-09-14T08:04:00;12.90;;;5.97;;
63567;SDS011;49715;42.386;20.434;2022-09-14T08:06:27;10.07;;;6.15;;
63567;SDS011;49715;42.386;20.434;2022-09-14T08:08:54;10.05;;;6.38;;
63567;SDS011;49715;42.386;20.434;2022-09-14T08:13:50;10.93;;;4.72;;
63567;SDS011;49715;42.386;20.434;2022-09-14T08:16:21;6.88;;;4.70;;
63567;SDS011;49715;42.386;20.434;2022-09-14T08:18:56;7.30;;;4.32;;
63567;SDS011;49715;42.386;20.434;2022-09-14T08:21:27;11.38;;;4.95;;
63567;SDS011;49715;42.386;20.434;2022-09-14T08:23:55;7.10;;;5.00;;
63567;SDS011;49715;42.386;20.434;2022-09-14T08:26:24;10.18;;;4.80;;
63567;SDS011;49715;42.386;20.434;2022-09-14T08:28:52;6.25;;;4.20;;
63567;SDS011;49715;42.386;20.434;2022-09-14T08:31:21;8.40;;;4.32;;
63567;SDS011;49715;42.386;20.434;2022-09-14T08:33:58;8.25;;;4.30;;
63567;SDS011;49715;42.386;20.434;2022-09-14T08:36:29;5.82;;;3.90;;
63567;SDS011;49715;42.386;20.434;2022-09-14T08:38:57;7.28;;;4.70;;
63567;SDS011;49715;42.386;20.434;2022-09-14T08:43:50;5.07;;;4.25;;
63567;SDS011;49715;42.386;20.434;2022-09-14T08:48:55;8.25;;;3.97;;
63567;SDS011;49715;42.386;20.434;2022-09-14T08:51:24;6.35;;;3.78;;
63567;SDS011;49715;42.386;20.434;2022-09-14T08:53:51;5.60;;;3.85;;
63567;SDS011;49715;42.386;20.434;2022-09-14T08:56:23;7.35;;;4.80;;
63567;SDS011;49715;42.386;20.434;2022-09-14T08:59:00;8.02;;;3.88;;
63567;SDS011;49715;42.386;20.434;2022-09-14T09:07:39;10.48;;;3.67;;
63567;SDS011;49715;42.386;20.434;2022-09-14T09:10:15;6.18;;;3.50;;
63567;SDS011;49715;42.386;20.434;2022-09-14T09:12:46;4.50;;;3.53;;
63567;SDS011;49715;42.386;20.434;2022-09-14T09:15:23;7.80;;;3.63;;
63567;SDS011;49715;42.386;20.434;2022-09-14T09:17:58;7.05;;;3.40;;
63567;SDS011;49715;42.386;20.434;2022-09-14T09:20:29;6.13;;;3.78;;
63567;SDS011;49715;42.386;20.434;2022-09-14T09:23:13;9.50;;;3.80;;
63567;SDS011;49715;42.386;20.434;2022-09-14T09:28:39;10.13;;;3.65;;
63567;SDS011;49715;42.386;20.434;2022-09-14T09:31:10;7.47;;;3.65;;
63567;SDS011;49715;42.386;20.434;2022-09-14T09:33:59;8.23;;;3.72;;
63567;SDS011;49715;42.386;20.434;2022-09-14T09:36:29;8.85;;;3.97;;
63567;SDS011;49715;42.386;20.434;2022-09-14T09:39:03;9.27;;;3.90;;
63567;SDS011;49715;42.386;20.434;2022-09-14T09:41:35;10.85;;;4.03;;
63567;SDS011;49715;42.386;20.434;2022-09-14T09:44:23;8.00;;;4.55;;
63567;SDS011;49715;42.386;20.434;2022-09-14T09:46:51;9.52;;;3.83;;
63567;SDS011;49715;42.386;20.434;2022-09-14T09:49:30;8.63;;;3.90;;
63567;SDS011;49715;42.386;20.434;2022-09-14T09:52:07;9.95;;;3.70;;
63567;SDS011;49715;42.386;20.434;2022-09-14T09:54:40;11.30;;;4.00;;
63567;SDS011;49715;42.386;20.434;2022-09-14T09:57:30;8.73;;;4.32;;
63567;SDS011;49715;42.386;20.434;2022-09-14T10:02:38;9.07;;;3.92;;
63567;SDS011;49715;42.386;20.434;2022-09-14T10:07:38;5.78;;;4.15;;
63567;SDS011;49715;42.386;20.434;2022-09-14T10:10:18;10.45;;;4.30;;
63567;SDS011;49715;42.386;20.434;2022-09-14T10:12:49;8.95;;;4.05;;
63567;SDS011;49715;42.386;20.434;2022-09-14T10:15:21;7.93;;;3.42;;
63567;SDS011;49715;42.386;20.434;2022-09-14T10:20:44;6.15;;;4.22;;
63567;SDS011;49715;42.386;20.434;2022-09-14T10:23:32;7.88;;;4.03;;
63567;SDS011;49715;42.386;20.434;2022-09-14T10:28:39;9.50;;;3.78;;
63567;SDS011;49715;42.386;20.434;2022-09-14T10:33:52;7.90;;;3.90;;
63567;SDS011;49715;42.386;20.434;2022-09-14T10:36:31;10.13;;;4.13;;
63567;SDS011;49715;42.386;20.434;2022-09-14T10:41:52;8.27;;;4.18;;
63567;SDS011;49715;42.386;20.434;2022-09-14T10:52:27;4.67;;;3.17;;
63567;SDS011;49715;42.386;20.434;2022-09-14T10:58:19;8.57;;;3.63;;
63567;SDS011;49715;42.386;20.434;2022-09-14T11:10:16;7.72;;;3.22;;
63567;SDS011;49715;42.386;20.434;2022-09-14T11:15:47;12.48;;;3.70;;
63567;SDS011;49715;42.386;20.434;2022-09-14T11:21:42;6.15;;;3.38;;
63567;SDS011;49715;42.386;20.434;2022-09-14T11:24:16;7.90;;;3.63;;
63567;SDS011;49715;42.386;20.434;2022-09-14T11:29:31;5.22;;;3.00;;
63567;SDS011;49715;42.386;20.434;2022-09-14T11:32:11;5.40;;;2.80;;
63567;SDS011;49715;42.386;20.434;2022-09-14T11:34:46;5.20;;;3.17;;
63567;SDS011;49715;42.386;20.434;2022-09-14T11:37:20;4.50;;;2.80;;
63567;SDS011;49715;42.386;20.434;2022-09-14T11:39:59;5.90;;;2.58;;
63567;SDS011;49715;42.386;20.434;2022-09-14T11:42:32;7.85;;;2.97;;
63567;SDS011;49715;42.386;20.434;2022-09-14T11:45:26;5.80;;;2.80;;
63567;SDS011;49715;42.386;20.434;2022-09-14T11:47:58;3.88;;;3.00;;
63567;SDS011;49715;42.386;20.434;2022-09-14T11:50:37;6.20;;;2.53;;
63567;SDS011;49715;42.386;20.434;2022-09-14T11:53:12;10.98;;;2.72;;
63567;SDS011;49715;42.386;20.434;2022-09-14T11:55:47;5.07;;;2.75;;
63567;SDS011;49715;42.386;20.434;2022-09-14T11:58:17;5.97;;;2.13;;
63567;SDS011;49715;42.386;20.434;2022-09-14T12:11:47;3.85;;;2.00;;
63567;SDS011;49715;42.386;20.434;2022-09-14T12:14:26;3.17;;;1.83;;
63567;SDS011;49715;42.386;20.434;2022-09-14T12:19:54;10.73;;;1.95;;
63567;SDS011;49715;42.386;20.434;2022-09-14T12:22:27;7.82;;;2.45;;
63567;SDS011;49715;42.386;20.434;2022-09-14T12:24:59;4.55;;;2.10;;
63567;SDS011;49715;42.386;20.434;2022-09-14T12:27:37;4.93;;;2.00;;
63567;SDS011;49715;42.386;20.434;2022-09-14T12:33:01;2.70;;;1.80;;
63567;SDS011;49715;42.386;20.434;2022-09-14T12:43:50;8.13;;;1.38;;
63567;SDS011;49715;42.386;20.434;2022-09-14T13:00:16;2.47;;;1.10;;
63567;SDS011;49715;42.386;20.434;2022-09-14T13:05:51;3.45;;;1.10;;
63567;SDS011;49715;42.386;20.434;2022-09-14T13:08:19;3.72;;;1.10;;
63567;SDS011;49715;42.386;20.434;2022-09-14T13:10:49;2.10;;;0.90;;
63567;SDS011;49715;42.386;20.434;2022-09-14T13:13:21;4.05;;;1.10;;
63567;SDS011;49715;42.386;20.434;2022-09-14T13:15:54;3.63;;;1.13;;
63567;SDS011;49715;42.386;20.434;2022-09-14T13:18:29;2.67;;;0.95;;
63567;SDS011;49715;42.386;20.434;2022-09-14T13:20:58;6.47;;;1.20;;
63567;SDS011;49715;42.386;20.434;2022-09-14T13:23:29;3.60;;;1.00;;
63567;SDS011;49715;42.386;20.434;2022-09-14T13:26:09;6.03;;;1.10;;
63567;SDS011;49715;42.386;20.434;2022-09-14T13:29:00;2.55;;;1.02;;
63567;SDS011;49715;42.386;20.434;2022-09-14T13:31:37;1.27;;;0.80;;
63567;SDS011;49715;42.386;20.434;2022-09-14T13:34:19;3.13;;;0.95;;
63567;SDS011;49715;42.386;20.434;2022-09-14T13:36:50;5.00;;;1.20;;
63567;SDS011;49715;42.386;20.434;2022-09-14T13:41:56;1.42;;;1.00;;
63567;SDS011;49715;42.386;20.434;2022-09-14T13:44:25;3.10;;;1.10;;
63567;SDS011;49715;42.386;20.434;2022-09-14T13:46:57;5.25;;;1.10;;
63567;SDS011;49715;42.386;20.434;2022-09-14T13:49:27;2.05;;;1.00;;
63567;SDS011;49715;42.386;20.434;2022-09-14T13:52:37;1.42;;;0.90;;
63567;SDS011;49715;42.386;20.434;2022-09-14T13:55:39;2.65;;;1.52;;
63567;SDS011;49715;42.386;20.434;2022-09-14T14:00:46;3.17;;;1.50;;
63567;SDS011;49715;42.386;20.434;2022-09-14T14:06:26;3.38;;;1.17;;
63567;SDS011;49715;42.386;20.434;2022-09-14T14:08:59;2.70;;;1.50;;
63567;SDS011;49715;42.386;20.434;2022-09-14T14:11:33;1.52;;;1.10;;
63567;SDS011;49715;42.386;20.434;2022-09-14T14:16:41;1.92;;;1.10;;
63567;SDS011;49715;42.386;20.434;2022-09-14T14:19:28;3.15;;;1.70;;
63567;SDS011;49715;42.386;20.434;2022-09-14T14:24:41;4.20;;;1.30;;
63567;SDS011;49715;42.386;20.434;2022-09-14T14:30:11;4.40;;;1.45;;
63567;SDS011;49715;42.386;20.434;2022-09-14T14:32:39;3.35;;;1.40;;
63567;SDS011;49715;42.386;20.434;2022-09-14T14:35:06;5.47;;;1.58;;
63567;SDS011;49715;42.386;20.434;2022-09-14T14:37:43;1.48;;;1.30;;
63567;SDS011;49715;42.386;20.434;2022-09-14T14:40:10;3.80;;;1.20;;
63567;SDS011;49715;42.386;20.434;2022-09-14T14:42:37;5.10;;;1.10;;
63567;SDS011;49715;42.386;20.434;2022-09-14T14:45:05;5.43;;;1.20;;
63567;SDS011;49715;42.386;20.434;2022-09-14T14:47:38;2.10;;;1.23;;
63567;SDS011;49715;42.386;20.434;2022-09-14T14:50:08;4.63;;;1.90;;
63567;SDS011;49715;42.386;20.434;2022-09-14T14:55:06;2.45;;;1.33;;
63567;SDS011;49715;42.386;20.434;2022-09-14T14:57:33;4.38;;;1.40;;
63567;SDS011;49715;42.386;20.434;2022-09-14T15:00:00;3.78;;;1.50;;
63567;SDS011;49715;42.386;20.434;2022-09-14T15:02:27;1.63;;;1.30;;
63567;SDS011;49715;42.386;20.434;2022-09-14T15:04:54;3.50;;;1.23;;
63567;SDS011;49715;42.386;20.434;2022-09-14T15:07:21;2.45;;;1.20;;
63567;SDS011;49715;42.386;20.434;2022-09-14T15:09:48;5.07;;;1.15;;
63567;SDS011;49715;42.386;20.434;2022-09-14T15:12:14;2.97;;;1.08;;
63567;SDS011;49715;42.386;20.434;2022-09-14T15:14:41;6.72;;;1.60;;
63567;SDS011;49715;42.386;20.434;2022-09-14T15:17:08;1.83;;;1.10;;
63567;SDS011;49715;42.386;20.434;2022-09-14T15:19:34;2.65;;;1.30;;
63567;SDS011;49715;42.386;20.434;2022-09-14T15:22:01;5.45;;;1.40;;
63567;SDS011;49715;42.386;20.434;2022-09-14T15:24:28;5.07;;;1.33;;
63567;SDS011;49715;42.386;20.434;2022-09-14T15:26:55;2.47;;;1.40;;
63567;SDS011;49715;42.386;20.434;2022-09-14T15:29:22;8.40;;;1.70;;
63567;SDS011;49715;42.386;20.434;2022-09-14T15:31:48;7.53;;;1.70;;
63567;SDS011;49715;42.386;20.434;2022-09-14T15:34:15;3.80;;;1.73;;
63567;SDS011;49715;42.386;20.434;2022-09-14T15:36:46;4.97;;;2.22;;
63567;SDS011;49715;42.386;20.434;2022-09-14T15:39:21;7.13;;;1.40;;
63567;SDS011;49715;42.386;20.434;2022-09-14T15:41:52;6.57;;;2.00;;
63567;SDS011;49715;42.386;20.434;2022-09-14T15:44:20;4.32;;;1.88;;
63567;SDS011;49715;42.386;20.434;2022-09-14T15:46:46;9.88;;;1.75;;
63567;SDS011;49715;42.386;20.434;2022-09-14T15:49:14;4.75;;;1.58;;
63567;SDS011;49715;42.386;20.434;2022-09-14T15:51:47;6.53;;;1.65;;
63567;SDS011;49715;42.386;20.434;2022-09-14T15:54:18;5.68;;;1.60;;
63567;SDS011;49715;42.386;20.434;2022-09-14T15:56:48;5.50;;;1.88;;
63567;SDS011;49715;42.386;20.434;2022-09-14T15:59:17;4.53;;;2.38;;
63567;SDS011;49715;42.386;20.434;2022-09-14T16:01:44;8.60;;;2.10;;
63567;SDS011;49715;42.386;20.434;2022-09-14T16:04:11;3.78;;;1.95;;
63567;SDS011;49715;42.386;20.434;2022-09-14T16:06:38;4.82;;;1.60;;
63567;SDS011;49715;42.386;20.434;2022-09-14T16:09:09;4.90;;;1.60;;
63567;SDS011;49715;42.386;20.434;2022-09-14T16:11:37;5.68;;;1.70;;
63567;SDS011;49715;42.386;20.434;2022-09-14T16:14:05;10.82;;;2.10;;
63567;SDS011;49715;42.386;20.434;2022-09-14T16:16:33;9.30;;;1.98;;
63567;SDS011;49715;42.386;20.434;2022-09-14T16:19:08;7.35;;;1.90;;
63567;SDS011;49715;42.386;20.434;2022-09-14T16:21:39;2.88;;;1.60;;
63567;SDS011;49715;42.386;20.434;2022-09-14T16:24:09;9.40;;;1.75;;
63567;SDS011;49715;42.386;20.434;2022-09-14T16:26:40;6.95;;;1.50;;
63567;SDS011;49715;42.386;20.434;2022-09-14T16:29:08;2.75;;;1.50;;
63567;SDS011;49715;42.386;20.434;2022-09-14T16:31:40;2.08;;;1.35;;
63567;SDS011;49715;42.386;20.434;2022-09-14T16:34:24;5.10;;;1.40;;
63567;SDS011;49715;42.386;20.434;2022-09-14T16:36:53;4.82;;;1.20;;
63567;SDS011;49715;42.386;20.434;2022-09-14T16:39:21;5.00;;;1.77;;
63567;SDS011;49715;42.386;20.434;2022-09-14T16:41:50;2.10;;;1.30;;
63567;SDS011;49715;42.386;20.434;2022-09-14T16:44:17;4.85;;;1.30;;
63567;SDS011;49715;42.386;20.434;2022-09-14T16:46:46;4.32;;;1.10;;
63567;SDS011;49715;42.386;20.434;2022-09-14T16:49:14;2.85;;;1.05;;
63567;SDS011;49715;42.386;20.434;2022-09-14T16:51:42;4.53;;;1.33;;
63567;SDS011;49715;42.386;20.434;2022-09-14T16:54:09;3.63;;;1.70;;
63567;SDS011;49715;42.386;20.434;2022-09-14T16:56:40;3.63;;;1.50;;
63567;SDS011;49715;42.386;20.434;2022-09-14T16:59:07;2.50;;;1.02;;
63567;SDS011;49715;42.386;20.434;2022-09-14T17:01:37;1.63;;;1.20;;
63567;SDS011;49715;42.386;20.434;2022-09-14T17:04:10;5.13;;;1.42;;
63567;SDS011;49715;42.386;20.434;2022-09-14T17:06:43;3.33;;;1.52;;
63567;SDS011;49715;42.386;20.434;2022-09-14T17:09:12;2.92;;;1.50;;
63567;SDS011;49715;42.386;20.434;2022-09-14T17:11:41;5.53;;;1.60;;
63567;SDS011;49715;42.386;20.434;2022-09-14T17:14:13;4.43;;;1.40;;
63567;SDS011;49715;42.386;20.434;2022-09-14T17:16:44;7.28;;;1.30;;
63567;SDS011;49715;42.386;20.434;2022-09-14T17:19:11;8.55;;;1.40;;
63567;SDS011;49715;42.386;20.434;2022-09-14T17:21:39;2.25;;;1.10;;
63567;SDS011;49715;42.386;20.434;2022-09-14T17:24:08;1.98;;;0.95;;
63567;SDS011;49715;42.386;20.434;2022-09-14T17:26:35;2.50;;;0.90;;
63567;SDS011;49715;42.386;20.434;2022-09-14T17:29:02;3.08;;;1.13;;
63567;SDS011;49715;42.386;20.434;2022-09-14T17:31:31;3.15;;;1.00;;
63567;SDS011;49715;42.386;20.434;2022-09-14T17:33:59;3.55;;;1.00;;
63567;SDS011;49715;42.386;20.434;2022-09-14T17:36:27;6.85;;;0.90;;
63567;SDS011;49715;42.386;20.434;2022-09-14T17:39:01;2.65;;;0.90;;
63567;SDS011;49715;42.386;20.434;2022-09-14T17:41:29;1.45;;;0.90;;
63567;SDS011;49715;42.386;20.434;2022-09-14T17:43:58;1.38;;;1.00;;
63567;SDS011;49715;42.386;20.434;2022-09-14T17:46:29;2.67;;;1.00;;
63567;SDS011;49715;42.386;20.434;2022-09-14T17:48:56;4.95;;;1.02;;
63567;SDS011;49715;42.386;20.434;2022-09-14T17:51:24;2.83;;;1.23;;
63567;SDS011;49715;42.386;20.434;2022-09-14T17:53:53;2.60;;;1.00;;
63567;SDS011;49715;42.386;20.434;2022-09-14T17:56:21;2.15;;;0.93;;
63567;SDS011;49715;42.386;20.434;2022-09-14T17:58:55;2.38;;;1.00;;
63567;SDS011;49715;42.386;20.434;2022-09-14T18:01:30;2.10;;;1.05;;
63567;SDS011;49715;42.386;20.434;2022-09-14T18:04:00;2.10;;;1.20;;
63567;SDS011;49715;42.386;20.434;2022-09-14T18:06:30;2.35;;;1.00;;
63567;SDS011;49715;42.386;20.434;2022-09-14T18:09:13;1.27;;;0.95;;
63567;SDS011;49715;42.386;20.434;2022-09-14T18:11:42;3.60;;;1.20;;
63567;SDS011;49715;42.386;20.434;2022-09-14T18:14:11;4.72;;;1.40;;
63567;SDS011;49715;42.386;20.434;2022-09-14T18:16:40;2.28;;;1.00;;
63567;SDS011;49715;42.386;20.434;2022-09-14T18:19:07;7.47;;;1.48;;
63567;SDS011;49715;42.386;20.434;2022-09-14T18:21:36;2.33;;;1.13;;
63567;SDS011;49715;42.386;20.434;2022-09-14T18:24:03;17.48;;;1.80;;
63567;SDS011;49715;42.386;20.434;2022-09-14T18:26:30;7.05;;;1.67;;
63567;SDS011;49715;42.386;20.434;2022-09-14T18:28:57;5.63;;;1.20;;
63567;SDS011;49715;42.386;20.434;2022-09-14T18:31:24;1.90;;;1.00;;
63567;SDS011;49715;42.386;20.434;2022-09-14T18:33:52;3.42;;;1.10;;
63567;SDS011;49715;42.386;20.434;2022-09-14T18:36:22;3.08;;;1.00;;
63567;SDS011;49715;42.386;20.434;2022-09-14T18:38:49;5.30;;;1.10;;
63567;SDS011;49715;42.386;20.434;2022-09-14T18:41:18;5.32;;;1.20;;
63567;SDS011;49715;42.386;20.434;2022-09-14T18:43:46;1.98;;;1.10;;
63567;SDS011;49715;42.386;20.434;2022-09-14T18:46:15;4.70;;;1.10;;
63567;SDS011;49715;42.386;20.434;2022-09-14T18:48:43;15.60;;;2.40;;
63567;SDS011;49715;42.386;20.434;2022-09-14T18:51:10;4.85;;;2.30;;
63567;SDS011;49715;42.386;20.434;2022-09-14T18:53:38;6.75;;;2.60;;
63567;SDS011;49715;42.386;20.434;2022-09-14T18:56:06;4.00;;;1.70;;
63567;SDS011;49715;42.386;20.434;2022-09-14T18:58:42;4.07;;;2.53;;
63567;SDS011;49715;42.386;20.434;2022-09-14T19:01:13;6.28;;;2.92;;
63567;SDS011;49715;42.386;20.434;2022-09-14T19:03:40;3.20;;;1.92;;
63567;SDS011;49715;42.386;20.434;2022-09-14T19:06:09;2.47;;;1.67;;
63567;SDS011;49715;42.386;20.434;2022-09-14T19:08:41;3.88;;;2.20;;
63567;SDS011;49715;42.386;20.434;2022-09-14T19:11:12;3.65;;;1.70;;
63567;SDS011;49715;42.386;20.434;2022-09-14T19:13:42;2.50;;;1.45;;
63567;SDS011;49715;42.386;20.434;2022-09-14T19:16:11;3.28;;;1.50;;
63567;SDS011;49715;42.386;20.434;2022-09-14T19:18:41;2.13;;;1.30;;
63567;SDS011;49715;42.386;20.434;2022-09-14T19:21:11;5.72;;;1.30;;
63567;SDS011;49715;42.386;20.434;2022-09-14T19:23:42;3.13;;;1.30;;
63567;SDS011;49715;42.386;20.434;2022-09-14T19:26:10;4.25;;;1.33;;
63567;SDS011;49715;42.386;20.434;2022-09-14T19:28:39;1.85;;;1.20;;
63567;SDS011;49715;42.386;20.434;2022-09-14T19:31:07;2.30;;;1.30;;
63567;SDS011;49715;42.386;20.434;2022-09-14T19:33:36;1.05;;;0.93;;
63567;SDS011;49715;42.386;20.434;2022-09-14T19:36:04;1.50;;;1.00;;
63567;SDS011;49715;42.386;20.434;2022-09-14T19:38:36;1.50;;;1.10;;
63567;SDS011;49715;42.386;20.434;2022-09-14T19:41:03;4.50;;;1.40;;
63567;SDS011;49715;42.386;20.434;2022-09-14T19:43:31;2.45;;;1.40;;
63567;SDS011;49715;42.386;20.434;2022-09-14T19:46:03;1.52;;;1.10;;
63567;SDS011;49715;42.386;20.434;2022-09-14T19:48:36;4.68;;;1.40;;
63567;SDS011;49715;42.386;20.434;2022-09-14T19:51:05;4.05;;;1.40;;
63567;SDS011;49715;42.386;20.434;2022-09-14T19:53:41;3.80;;;1.25;;
63567;SDS011;49715;42.386;20.434;2022-09-14T19:56:10;3.80;;;1.30;;
63567;SDS011;49715;42.386;20.434;2022-09-14T19:58:44;3.33;;;1.40;;
63567;SDS011;49715;42.386;20.434;2022-09-14T20:01:14;3.22;;;1.30;;
63567;SDS011;49715;42.386;20.434;2022-09-14T20:03:45;2.20;;;1.50;;
63567;SDS011;49715;42.386;20.434;2022-09-14T20:06:15;3.42;;;1.30;;
63567;SDS011;49715;42.386;20.434;2022-09-14T20:08:49;2.08;;;1.40;;
63567;SDS011;49715;42.386;20.434;2022-09-14T20:11:19;2.67;;;1.10;;
63567;SDS011;49715;42.386;20.434;2022-09-14T20:13:54;6.57;;;1.30;;
63567;SDS011;49715;42.386;20.434;2022-09-14T20:18:55;2.95;;;1.05;;
63567;SDS011;49715;42.386;20.434;2022-09-14T20:21:23;2.33;;;1.17;;
63567;SDS011;49715;42.386;20.434;2022-09-14T20:23:54;2.80;;;1.25;;
63567;SDS011;49715;42.386;20.434;2022-09-14T20:26:23;2.35;;;1.00;;
63567;SDS011;49715;42.386;20.434;2022-09-14T20:28:51;2.30;;;1.00;;
63567;SDS011;49715;42.386;20.434;2022-09-14T20:31:19;5.18;;;1.13;;
63567;SDS011;49715;42.386;20.434;2022-09-14T20:33:45;1.15;;;0.90;;